KPBF

Pine Bluff Regional Grider Field Airport

Pine Bluff, Arkansas, USA
METAR KPBF 280053Z AUTO 08003KT 10SM CLR 29/22 A2985 RMK AO2 SLP104 T02890217
Observed Flight Rules
May-28 @ 00:53 UTC (29 minutes ago) Visual Flight Rules
Wind Visibility Clouds
80° at 3 knots 10 miles
  • Clear skies
Temperatures Readings
Current 29°C / 84°F
Dewpoint 22°C / 72°F
Humidity 66%
Altimeter 29.85" Hg
Pressure 1010.4 hPa
Elevation 62
METAR KPBF 280053Z AUTO 08003KT 10SM CLR 29/22 A2985 RMK AO2 SLP104 T02890217
Observed Flight Rules
May-28 @ 00:53 UTC
(29 minutes ago)
VFR
Wind Visibility
80° at 3 knots 10 miles
Clouds
  • Clear skies
Temperature Dewpoint
29°C / 84°F 22°C / 72°F
Humidity Altimeter Pressure
66% 29.85" Hg 1010.4 hPa